createdAt,value
2019-02-28T00:04:36.775Z,7.75
2019-02-28T00:07:18.076Z,7.47
2019-02-28T00:09:59.753Z,9.40
2019-02-28T00:12:40.184Z,8.98
2019-02-28T00:15:20.642Z,8.88
2019-02-28T00:18:01.067Z,8.08
2019-02-28T00:20:41.815Z,8.90
2019-02-28T00:23:23.037Z,8.85
2019-02-28T00:26:03.534Z,8.70
2019-02-28T00:28:44.388Z,8.23
2019-02-28T00:31:25.263Z,8.65
2019-02-28T00:37:10.980Z,8.63
2019-02-28T00:39:52.139Z,9.03
2019-02-28T00:42:32.598Z,8.73
2019-02-28T00:45:13.046Z,8.05
2019-02-28T00:47:53.998Z,8.50
2019-02-28T00:50:33.179Z,8.50
2019-02-28T00:53:21.024Z,8.78
2019-02-28T00:56:08.911Z,7.67
2019-02-28T00:58:56.759Z,8.15
2019-02-28T01:01:46.051Z,8.93
2019-02-28T01:04:34.431Z,7.80
2019-02-28T01:07:16.266Z,9.25
2019-02-28T01:09:57.447Z,8.90
2019-02-28T01:12:38.179Z,8.50
2019-02-28T01:15:18.678Z,8.95
2019-02-28T01:18:00.424Z,9.90
2019-02-28T01:20:42.047Z,9.65
2019-02-28T01:23:22.795Z,9.70
2019-02-28T01:26:03.535Z,8.48
2019-02-28T01:28:44.062Z,9.45
2019-02-28T01:31:24.691Z,9.70
2019-02-28T01:34:04.943Z,9.28
2019-02-28T01:36:48.390Z,8.70
2019-02-28T01:39:29.942Z,9.20
2019-02-28T01:42:10.655Z,9.20
2019-02-28T01:44:51.764Z,8.55
2019-02-28T01:47:32.514Z,9.03
2019-02-28T01:50:13.328Z,8.58
2019-02-28T01:52:54.007Z,8.80
2019-02-28T01:55:34.394Z,9.85
2019-02-28T01:58:16.751Z,9.83
2019-02-28T02:03:43.978Z,9.80
2019-02-28T02:06:25.708Z,9.88
2019-02-28T02:09:08.111Z,8.53
2019-02-28T02:11:49.643Z,9.58
2019-02-28T02:14:29.951Z,9.33
2019-02-28T02:17:10.332Z,9.93
2019-02-28T02:19:52.143Z,9.65
2019-02-28T02:22:33.891Z,9.25
2019-02-28T02:25:15.010Z,9.10
2019-02-28T02:27:55.580Z,8.13
2019-02-28T02:30:36.635Z,10.15
2019-02-28T02:33:18.249Z,9.60
2019-02-28T02:35:59.430Z,9.25
2019-02-28T02:38:41.463Z,9.28
2019-02-28T02:41:22.695Z,8.98
2019-02-28T02:44:03.345Z,9.18
2019-02-28T02:46:43.684Z,8.88
2019-02-28T02:49:24.655Z,8.78
2019-02-28T02:52:05.439Z,8.65
2019-02-28T02:54:46.543Z,8.95
2019-02-28T02:57:27.289Z,9.08
2019-02-28T03:00:13.425Z,9.00
2019-02-28T03:05:35.739Z,13.13
2019-02-28T03:08:14.912Z,10.63
2019-02-28T03:10:56.288Z,9.48
2019-02-28T03:13:41.913Z,10.35
2019-02-28T03:19:12.136Z,9.45
2019-02-28T03:24:38.371Z,8.78
2019-02-28T03:38:29.123Z,8.13
2019-02-28T04:09:08.378Z,9.68
2019-02-28T04:11:49.956Z,9.68
2019-02-28T04:14:33.042Z,10.23
2019-02-28T04:17:13.276Z,9.88
2019-02-28T04:19:58.776Z,9.83
2019-02-28T04:22:36.363Z,10.55
2019-02-28T04:25:22.452Z,10.08
2019-02-28T04:27:59.944Z,10.43
2019-02-28T04:30:43.811Z,10.38
2019-02-28T04:33:23.086Z,10.20
2019-02-28T04:36:04.226Z,10.20
2019-02-28T04:38:44.887Z,9.50
2019-02-28T04:41:25.591Z,9.10
2019-02-28T04:44:06.503Z,8.65
2019-02-28T04:46:46.778Z,7.85
2019-02-28T04:49:27.234Z,8.68
2019-02-28T04:52:08.106Z,9.10
2019-02-28T04:54:48.894Z,8.15
2019-02-28T04:57:29.523Z,9.13
2019-02-28T05:00:09.963Z,9.55
2019-02-28T05:02:53.859Z,10.80
2019-02-28T05:05:21.263Z,10.25
2019-02-28T05:07:50.070Z,11.25
2019-02-28T05:10:19.300Z,10.53
2019-02-28T05:12:49.371Z,11.38
2019-02-28T05:15:17.953Z,9.43
2019-02-28T05:17:46.847Z,10.28
2019-02-28T05:20:15.745Z,11.05
2019-02-28T05:22:44.935Z,10.25
2019-02-28T05:25:17.750Z,11.03
2019-02-28T05:27:43.838Z,10.88
2019-02-28T05:30:18.050Z,11.18
2019-02-28T05:32:43.679Z,10.53
2019-02-28T05:35:12.558Z,10.45
2019-02-28T05:37:46.828Z,10.72
2019-02-28T05:40:12.001Z,9.80
2019-02-28T05:42:40.553Z,9.58
2019-02-28T05:45:11.332Z,10.03
2019-02-28T05:47:46.280Z,8.83
2019-02-28T05:50:15.577Z,10.00
2019-02-28T05:52:42.063Z,9.58
2019-02-28T05:55:10.966Z,9.18
2019-02-28T05:57:43.403Z,10.03
2019-02-28T06:00:10.434Z,10.08
2019-02-28T06:02:39.056Z,9.98
2019-02-28T06:05:08.482Z,9.60
2019-02-28T06:07:38.798Z,11.08
2019-02-28T06:10:08.139Z,9.08
2019-02-28T06:12:36.770Z,10.85
2019-02-28T06:15:06.430Z,10.18
2019-02-28T06:17:35.446Z,10.00
2019-02-28T06:20:04.850Z,10.43
2019-02-28T06:22:36.200Z,10.53
2019-02-28T06:25:04.763Z,10.55
2019-02-28T06:27:41.088Z,10.65
2019-02-28T06:30:05.064Z,11.00
2019-02-28T06:32:33.626Z,10.30
2019-02-28T06:35:02.225Z,9.53
2019-02-28T06:37:30.791Z,10.60
2019-02-28T06:39:59.770Z,10.18
2019-02-28T06:42:28.378Z,11.05
2019-02-28T06:44:58.689Z,10.28
2019-02-28T06:47:27.593Z,10.72
2019-02-28T06:49:56.186Z,10.43
2019-02-28T06:52:25.252Z,10.43
2019-02-28T06:54:55.004Z,12.15
2019-02-28T06:57:26.955Z,11.73
2019-02-28T06:59:54.835Z,11.88
2019-02-28T07:02:23.730Z,11.22
2019-02-28T07:04:52.926Z,11.28
2019-02-28T07:07:21.478Z,11.90
2019-02-28T07:09:50.098Z,14.28
2019-02-28T07:12:18.647Z,13.75
2019-02-28T07:14:49.310Z,13.58
2019-02-28T07:17:18.603Z,15.48
2019-02-28T07:19:47.177Z,13.70
2019-02-28T07:22:19.616Z,12.25
2019-02-28T07:24:46.715Z,11.25
2019-02-28T07:27:15.322Z,11.48
2019-02-28T07:29:43.966Z,11.33
2019-02-28T07:32:12.870Z,11.10
2019-02-28T07:34:41.446Z,11.78
2019-02-28T07:37:10.303Z,11.57
2019-02-28T07:39:40.470Z,12.18
2019-02-28T07:42:09.278Z,12.30
2019-02-28T07:44:38.671Z,12.13
2019-02-28T07:47:07.227Z,11.90
2019-02-28T07:49:37.007Z,12.05
2019-02-28T07:52:05.723Z,13.18
2019-02-28T07:54:34.306Z,12.55
2019-02-28T07:57:03.369Z,12.05
2019-02-28T07:59:32.219Z,12.82
2019-02-28T08:02:03.183Z,13.25
2019-02-28T08:04:31.095Z,12.88
2019-02-28T08:06:59.694Z,13.83
2019-02-28T08:09:32.469Z,15.60
2019-02-28T08:12:01.394Z,15.98
2019-02-28T08:14:29.955Z,14.98
2019-02-28T08:16:58.534Z,15.38
2019-02-28T08:19:28.183Z,15.13
2019-02-28T08:21:57.165Z,16.35
2019-02-28T08:24:26.643Z,17.27
2019-02-28T08:26:55.426Z,17.00
2019-02-28T08:29:24.337Z,16.35
2019-02-28T08:31:53.527Z,16.00
2019-02-28T08:34:23.882Z,17.37
2019-02-28T08:36:53.269Z,15.90
2019-02-28T08:39:21.855Z,16.00
2019-02-28T08:41:50.410Z,16.67
2019-02-28T08:44:23.027Z,17.98
2019-02-28T08:46:50.319Z,17.07
2019-02-28T08:49:19.245Z,17.73
2019-02-28T08:51:47.821Z,16.32
2019-02-28T08:54:16.412Z,17.23
2019-02-28T08:56:46.141Z,16.73
2019-02-28T08:59:20.443Z,16.70
2019-02-28T09:01:46.388Z,18.17
2019-02-28T09:04:15.563Z,17.82
2019-02-28T09:06:44.111Z,17.02
2019-02-28T09:09:14.607Z,17.73
2019-02-28T09:11:44.218Z,19.23
2019-02-28T09:14:14.751Z,18.40
2019-02-28T09:16:43.684Z,18.15
2019-02-28T09:19:12.659Z,18.30
2019-02-28T09:21:41.356Z,18.30
2019-02-28T09:24:12.702Z,20.27
2019-02-28T09:26:40.901Z,19.90
2019-02-28T09:29:10.106Z,18.82
2019-02-28T09:31:39.759Z,19.17
2019-02-28T09:34:09.295Z,19.55
2019-02-28T09:36:37.993Z,18.85
2019-02-28T09:39:07.133Z,19.52
2019-02-28T09:41:36.363Z,20.17
2019-02-28T09:44:07.045Z,20.90
2019-02-28T09:46:35.910Z,20.00
2019-02-28T09:49:05.680Z,21.85
2019-02-28T09:51:34.746Z,21.42
2019-02-28T09:54:03.326Z,21.82
2019-02-28T09:56:32.210Z,23.30
2019-02-28T09:59:03.113Z,24.02
2019-02-28T10:01:31.656Z,23.50
2019-02-28T10:04:00.342Z,23.45
2019-02-28T10:06:29.205Z,24.12
2019-02-28T10:08:57.805Z,23.02
2019-02-28T10:11:31.190Z,24.27
2019-02-28T10:13:56.712Z,25.30
2019-02-28T10:16:25.266Z,26.25
2019-02-28T10:18:53.906Z,25.37
2019-02-28T10:21:22.538Z,25.85
2019-02-28T10:23:53.332Z,25.95
2019-02-28T10:26:21.444Z,26.68
2019-02-28T10:28:50.665Z,26.48
2019-02-28T10:31:22.922Z,26.35
2019-02-28T10:33:52.552Z,26.25
2019-02-28T10:36:21.655Z,27.60
2019-02-28T10:38:50.347Z,25.57
2019-02-28T10:41:19.306Z,25.97
2019-02-28T10:43:51.932Z,25.72
2019-02-28T10:46:20.235Z,26.80
2019-02-28T10:48:50.988Z,25.97
2019-02-28T10:51:19.159Z,25.45
2019-02-28T10:53:47.742Z,26.27
2019-02-28T10:56:16.334Z,27.40
2019-02-28T10:58:47.209Z,27.58
2019-02-28T11:01:15.558Z,26.05
2019-02-28T11:03:44.147Z,25.45
2019-02-28T11:06:12.726Z,26.35
2019-02-28T11:08:41.330Z,25.72
2019-02-28T11:11:10.442Z,25.70
2019-02-28T11:13:39.909Z,26.70
2019-02-28T11:16:08.605Z,27.40
2019-02-28T11:18:37.177Z,25.50
2019-02-28T11:21:05.771Z,25.10
2019-02-28T11:23:35.691Z,24.72
2019-02-28T11:26:06.367Z,24.82
2019-02-28T11:28:35.213Z,24.95
2019-02-28T11:31:04.418Z,24.45
2019-02-28T11:33:33.306Z,24.32
2019-02-28T11:36:01.875Z,24.47
2019-02-28T11:38:30.451Z,25.02
2019-02-28T11:40:59.073Z,23.27
2019-02-28T11:43:28.051Z,22.82
2019-02-28T11:46:01.030Z,23.70
2019-02-28T11:48:27.363Z,23.05
2019-02-28T11:50:55.941Z,22.82
2019-02-28T11:53:24.526Z,24.65
2019-02-28T11:55:53.586Z,22.98
2019-02-28T11:58:23.342Z,22.07
2019-02-28T12:00:51.901Z,23.67
2019-02-28T12:03:21.399Z,23.30
2019-02-28T12:05:50.659Z,24.20
2019-02-28T12:08:20.019Z,22.10
2019-02-28T12:10:48.598Z,22.82
2019-02-28T12:13:19.595Z,23.73
2019-02-28T12:15:49.063Z,23.40
2019-02-28T12:18:17.672Z,23.15
2019-02-28T12:20:46.314Z,22.77
2019-02-28T12:23:15.045Z,25.37
2019-02-28T12:25:43.687Z,22.20
2019-02-28T12:28:12.702Z,22.85
2019-02-28T12:30:41.583Z,22.70
2019-02-28T12:33:10.784Z,22.95
2019-02-28T12:35:40.630Z,22.25
2019-02-28T12:38:09.698Z,23.67
2019-02-28T12:40:38.589Z,23.60
2019-02-28T12:43:08.607Z,23.67
2019-02-28T12:45:38.524Z,21.95
2019-02-28T12:48:07.614Z,20.85
2019-02-28T12:50:36.502Z,21.52
2019-02-28T12:53:05.236Z,21.37
2019-02-28T12:55:35.434Z,21.42
2019-02-28T12:58:04.818Z,20.60
2019-02-28T13:00:35.590Z,20.27
2019-02-28T13:03:04.234Z,20.52
2019-02-28T13:05:33.343Z,20.10
2019-02-28T13:08:02.152Z,21.85
2019-02-28T13:10:31.201Z,22.13
2019-02-28T13:13:06.480Z,20.30
2019-02-28T13:15:30.770Z,20.97
2019-02-28T13:17:59.433Z,19.70
2019-02-28T13:20:32.364Z,19.77
2019-02-28T13:23:00.981Z,19.55
2019-02-28T13:25:29.485Z,21.17
2019-02-28T13:27:58.102Z,19.73
2019-02-28T13:30:27.057Z,19.85
2019-02-28T13:32:56.028Z,20.72
2019-02-28T13:35:27.094Z,20.20
2019-02-28T13:37:56.028Z,20.43
2019-02-28T13:40:24.989Z,21.60
2019-02-28T13:42:53.871Z,21.07
2019-02-28T13:45:23.941Z,19.25
2019-02-28T13:47:52.986Z,20.23
2019-02-28T13:50:25.712Z,21.30
2019-02-28T13:52:53.738Z,21.68
2019-02-28T13:55:22.743Z,21.00
2019-02-28T13:57:51.294Z,21.05
2019-02-28T14:00:24.489Z,20.35
2019-02-28T14:02:55.190Z,20.20
2019-02-28T14:05:24.022Z,20.52
2019-02-28T14:07:52.599Z,20.35
2019-02-28T14:10:22.322Z,19.45
2019-02-28T14:12:53.321Z,19.20
2019-02-28T14:15:25.116Z,19.67
2019-02-28T14:17:53.988Z,20.77
2019-02-28T14:20:24.430Z,18.27
2019-02-28T14:22:52.915Z,16.87
2019-02-28T14:25:22.503Z,16.02
2019-02-28T14:27:51.405Z,15.50
2019-02-28T14:30:22.774Z,15.10
2019-02-28T14:32:51.750Z,16.67
2019-02-28T14:35:22.875Z,17.60
2019-02-28T14:37:51.836Z,17.25
2019-02-28T14:40:21.311Z,18.15
2019-02-28T14:42:49.878Z,17.95
2019-02-28T14:45:19.062Z,17.82
2019-02-28T14:47:56.574Z,20.85
2019-02-28T14:50:18.911Z,19.15
2019-02-28T14:52:48.767Z,19.70
2019-02-28T14:55:17.398Z,20.88
2019-02-28T14:57:48.844Z,21.10
2019-02-28T15:00:27.493Z,21.52
2019-02-28T15:02:59.505Z,23.07
2019-02-28T15:05:27.643Z,22.20
2019-02-28T15:07:56.758Z,22.60
2019-02-28T15:10:25.454Z,22.87
2019-02-28T15:12:55.322Z,23.15
2019-02-28T15:15:24.723Z,22.90
2019-02-28T15:17:54.236Z,23.42
2019-02-28T15:20:23.178Z,24.80
2019-02-28T15:22:55.557Z,23.57
2019-02-28T15:25:23.463Z,23.52
2019-02-28T15:27:52.031Z,25.15
2019-02-28T15:30:23.021Z,24.10
2019-02-28T15:32:54.398Z,24.00
2019-02-28T15:35:23.123Z,24.05
2019-02-28T15:37:52.019Z,24.02
2019-02-28T15:40:24.727Z,22.87
2019-02-28T15:42:53.688Z,22.50
2019-02-28T15:45:22.558Z,21.80
2019-02-28T15:47:59.121Z,20.37
2019-02-28T15:50:26.560Z,18.95
2019-02-28T15:52:55.906Z,20.90
2019-02-28T15:55:25.010Z,23.02
2019-02-28T15:57:53.578Z,23.07
2019-02-28T16:00:24.222Z,21.35
2019-02-28T16:02:53.135Z,21.68
2019-02-28T16:05:21.777Z,24.60
2019-02-28T16:07:50.588Z,24.12
2019-02-28T16:10:21.311Z,22.13
2019-02-28T16:12:51.207Z,22.17
2019-02-28T16:15:20.023Z,22.48
2019-02-28T16:17:48.607Z,23.45
2019-02-28T16:20:17.644Z,25.27
2019-02-28T16:22:52.081Z,24.90
2019-02-28T16:25:22.487Z,22.95
2019-02-28T16:27:51.427Z,22.75
2019-02-28T16:30:20.007Z,23.52
2019-02-28T16:32:49.084Z,23.30
2019-02-28T16:35:19.068Z,23.65
2019-02-28T16:37:48.030Z,25.32
2019-02-28T16:40:20.705Z,24.90
2019-02-28T16:42:48.751Z,26.27
2019-02-28T16:45:24.699Z,27.10
2019-02-28T16:47:55.627Z,26.02
2019-02-28T16:50:24.349Z,25.20
2019-02-28T16:52:53.143Z,26.42
2019-02-28T16:55:21.805Z,26.85
2019-02-28T16:57:50.410Z,25.12
2019-02-28T17:00:19.258Z,23.27
2019-02-28T17:02:48.266Z,22.60
2019-02-28T17:05:36.351Z,22.75
2019-02-28T17:08:26.231Z,20.55
2019-02-28T17:11:14.693Z,17.90
2019-02-28T17:17:03.238Z,10.88
2019-02-28T17:19:51.178Z,10.18
2019-02-28T17:22:39.031Z,8.75
2019-02-28T17:25:27.127Z,8.68
2019-02-28T17:28:40.258Z,8.13
2019-02-28T17:34:45.244Z,7.30
2019-02-28T17:37:33.080Z,6.97
2019-02-28T17:40:23.166Z,6.60
2019-02-28T17:45:58.855Z,5.80
2019-02-28T17:51:37.780Z,5.22
2019-02-28T17:54:54.273Z,5.75
2019-02-28T18:01:12.811Z,6.10
2019-02-28T18:04:20.888Z,6.25
2019-02-28T18:07:29.315Z,6.72
2019-02-28T18:10:24.296Z,7.47
2019-02-28T18:13:30.899Z,7.05
2019-02-28T18:16:11.740Z,6.97
2019-02-28T18:18:52.023Z,6.92
2019-02-28T18:21:32.849Z,6.97
2019-02-28T18:24:14.106Z,7.62
2019-02-28T18:26:54.378Z,7.20
2019-02-28T18:29:35.336Z,7.58
2019-02-28T18:32:15.731Z,7.80
2019-02-28T18:34:57.095Z,7.25
2019-02-28T18:37:38.371Z,8.55
2019-02-28T18:40:22.741Z,7.58
2019-02-28T18:43:02.259Z,8.23
2019-02-28T18:45:43.231Z,8.18
2019-02-28T18:48:23.899Z,8.83
2019-02-28T18:51:04.442Z,9.03
2019-02-28T18:53:45.230Z,8.78
2019-02-28T18:56:25.777Z,9.88
2019-02-28T18:59:06.550Z,10.43
2019-02-28T19:01:47.329Z,10.13
2019-02-28T19:04:28.099Z,10.35
2019-02-28T19:07:08.731Z,10.05
2019-02-28T19:09:49.599Z,10.93
2019-02-28T19:12:29.956Z,11.08
2019-02-28T19:15:10.820Z,11.60
2019-02-28T19:17:51.156Z,11.55
2019-02-28T19:20:32.211Z,11.78
2019-02-28T19:23:13.445Z,11.43
2019-02-28T19:25:54.606Z,11.45
2019-02-28T19:28:35.851Z,11.68
2019-02-28T19:31:16.532Z,12.15
2019-02-28T19:33:56.907Z,11.75
2019-02-28T19:36:37.919Z,11.63
2019-02-28T19:39:18.144Z,11.30
2019-02-28T19:41:58.891Z,10.10
2019-02-28T19:44:40.110Z,11.53
2019-02-28T19:47:21.210Z,11.30
2019-02-28T19:50:01.704Z,11.20
2019-02-28T19:52:47.739Z,11.53
2019-02-28T19:55:29.142Z,11.65
2019-02-28T19:58:10.411Z,11.73
2019-02-28T20:00:52.064Z,11.30
2019-02-28T20:03:33.375Z,11.60
2019-02-28T20:06:14.035Z,11.53
2019-02-28T20:08:54.835Z,11.22
2019-02-28T20:11:35.574Z,10.15
2019-02-28T20:14:16.565Z,10.82
2019-02-28T20:16:56.934Z,11.85
2019-02-28T20:19:37.599Z,10.53
2019-02-28T20:22:18.234Z,10.72
2019-02-28T20:24:58.965Z,11.28
2019-02-28T20:27:40.095Z,12.07
2019-02-28T20:30:21.115Z,12.40
2019-02-28T20:33:02.279Z,11.28
2019-02-28T20:35:43.523Z,12.15
2019-02-28T20:38:24.519Z,12.70
2019-02-28T20:41:09.143Z,13.43
2019-02-28T20:43:50.197Z,12.75
2019-02-28T20:46:30.642Z,13.88
2019-02-28T20:49:11.797Z,13.08
2019-02-28T20:51:55.392Z,12.37
2019-02-28T20:54:35.088Z,13.38
2019-02-28T20:57:15.987Z,13.30
2019-02-28T20:59:59.801Z,13.78
2019-02-28T21:02:40.697Z,13.22
2019-02-28T21:08:07.583Z,13.28
2019-02-28T21:10:47.979Z,14.35
2019-02-28T21:13:29.675Z,13.50
2019-02-28T21:16:11.105Z,12.75
2019-02-28T21:21:37.371Z,13.20
2019-02-28T22:03:28.139Z,10.78
2019-02-28T22:06:08.730Z,10.48
2019-02-28T22:08:49.274Z,10.90
2019-02-28T22:11:29.799Z,10.65
2019-02-28T22:14:10.494Z,9.65
2019-02-28T22:16:51.228Z,10.28
2019-02-28T22:19:31.992Z,10.53
2019-02-28T22:22:12.699Z,8.78
2019-02-28T22:24:52.915Z,9.58
2019-02-28T22:27:33.591Z,8.65
2019-02-28T22:30:33.147Z,8.58
2019-02-28T22:33:20.667Z,8.90
2019-02-28T22:36:01.700Z,8.28
2019-02-28T22:38:42.823Z,7.70
2019-02-28T22:41:23.554Z,7.30
2019-02-28T22:44:04.662Z,7.67
2019-02-28T22:46:45.955Z,7.42
2019-02-28T22:49:26.619Z,6.58
2019-02-28T22:52:07.192Z,7.12
2019-02-28T22:54:48.224Z,6.90
2019-02-28T22:57:28.503Z,6.80
2019-02-28T23:00:09.435Z,6.08
2019-02-28T23:02:50.137Z,6.30
2019-02-28T23:05:18.969Z,6.42
2019-02-28T23:07:49.618Z,5.55
2019-02-28T23:10:18.820Z,5.10
2019-02-28T23:12:47.388Z,5.00
2019-02-28T23:15:16.278Z,5.12
2019-02-28T23:17:44.858Z,6.28
2019-02-28T23:20:13.471Z,5.40
2019-02-28T23:22:42.628Z,5.58
2019-02-28T23:25:11.238Z,5.85
2019-02-28T23:27:40.141Z,6.10
2019-02-28T23:30:42.142Z,5.50
2019-02-28T23:33:17.079Z,6.42
2019-02-28T23:35:47.403Z,6.00
2019-02-28T23:38:16.029Z,6.28
2019-02-28T23:40:44.623Z,6.75
2019-02-28T23:43:13.520Z,5.65
2019-02-28T23:45:42.419Z,5.35
2019-02-28T23:48:10.970Z,6.15
2019-02-28T23:50:40.202Z,5.65
2019-02-28T23:53:09.082Z,5.87
2019-02-28T23:55:37.987Z,5.67
2019-02-28T23:58:07.146Z,5.33
